createdAt,value
2018-10-16T00:00:28.306Z,7.60
2018-10-16T00:02:57.407Z,10.35
2018-10-16T00:05:26.533Z,7.87
2018-10-16T00:07:56.486Z,6.87
2018-10-16T00:10:31.693Z,8.38
2018-10-16T00:13:00.740Z,8.40
2018-10-16T00:15:29.805Z,9.23
2018-10-16T00:17:59.622Z,7.53
2018-10-16T00:20:28.668Z,9.03
2018-10-16T00:22:57.820Z,7.67
2018-10-16T00:25:27.721Z,8.78
2018-10-16T00:27:56.793Z,7.17
2018-10-16T00:30:26.215Z,7.00
2018-10-16T00:32:56.066Z,7.85
2018-10-16T00:35:25.137Z,8.53
2018-10-16T00:37:54.786Z,7.58
2018-10-16T00:40:24.669Z,9.33
2018-10-16T00:42:53.992Z,8.43
2018-10-16T00:45:23.026Z,7.25
2018-10-16T00:47:53.048Z,8.23
2018-10-16T00:50:22.133Z,8.40
2018-10-16T00:52:51.801Z,11.00
2018-10-16T00:55:21.660Z,8.65
2018-10-16T00:57:50.709Z,8.63
2018-10-16T01:00:19.784Z,7.65
2018-10-16T01:02:50.495Z,7.58
2018-10-16T01:05:19.535Z,9.10
2018-10-16T01:07:48.938Z,9.53
2018-10-16T01:10:19.308Z,6.83
2018-10-16T01:12:48.354Z,7.58
2018-10-16T01:15:18.066Z,8.73
2018-10-16T01:17:47.373Z,7.05
2018-10-16T01:20:16.550Z,8.43
2018-10-16T01:22:45.598Z,8.75
2018-10-16T01:25:14.625Z,7.12
2018-10-16T01:27:43.754Z,6.50
2018-10-16T01:30:13.905Z,11.85
2018-10-16T01:32:43.807Z,8.35
2018-10-16T01:35:13.677Z,6.85
2018-10-16T01:37:43.617Z,7.03
2018-10-16T01:40:13.014Z,7.92
2018-10-16T01:42:42.065Z,9.75
2018-10-16T01:45:11.648Z,7.53
2018-10-16T01:47:42.725Z,8.98
2018-10-16T01:50:11.778Z,7.90
2018-10-16T01:52:40.802Z,7.22
2018-10-16T01:55:10.485Z,5.92
2018-10-16T01:57:39.760Z,6.10
2018-10-16T02:00:10.570Z,11.00
2018-10-16T02:02:40.101Z,7.33
2018-10-16T02:05:09.066Z,11.15
2018-10-16T02:07:38.848Z,7.50
2018-10-16T02:10:08.970Z,9.85
2018-10-16T02:12:38.627Z,8.28
2018-10-16T02:15:08.514Z,7.20
2018-10-16T02:17:38.467Z,7.05
2018-10-16T02:20:08.077Z,8.50
2018-10-16T02:22:37.671Z,7.03
2018-10-16T02:25:07.666Z,7.90
2018-10-16T02:27:36.730Z,6.95
2018-10-16T02:30:06.848Z,8.93
2018-10-16T02:32:37.062Z,7.50
2018-10-16T02:35:08.102Z,7.28
2018-10-16T02:37:37.138Z,7.28
2018-10-16T02:40:08.553Z,7.75
2018-10-16T02:42:39.214Z,7.28
2018-10-16T02:45:09.700Z,8.85
2018-10-16T02:47:40.182Z,7.67
2018-10-16T02:50:10.448Z,6.65
2018-10-16T02:52:40.159Z,8.58
2018-10-16T02:55:10.122Z,7.47
2018-10-16T02:57:39.650Z,6.05
2018-10-16T03:00:09.390Z,7.62
2018-10-16T03:02:38.446Z,8.08
2018-10-16T03:05:07.535Z,7.15
2018-10-16T03:07:36.779Z,7.05
2018-10-16T03:10:06.464Z,7.67
2018-10-16T03:12:35.511Z,8.53
2018-10-16T03:15:07.830Z,6.80
2018-10-16T03:17:37.100Z,6.35
2018-10-16T03:20:06.528Z,8.48
2018-10-16T03:22:35.582Z,6.92
2018-10-16T03:25:05.148Z,7.00
2018-10-16T03:27:34.201Z,9.13
2018-10-16T03:30:04.457Z,11.05
2018-10-16T03:32:34.079Z,6.72
2018-10-16T03:35:04.493Z,10.05
2018-10-16T03:37:33.530Z,6.90
2018-10-16T03:40:03.161Z,7.87
2018-10-16T03:42:32.202Z,7.83
2018-10-16T03:45:01.240Z,6.75
2018-10-16T03:47:31.512Z,8.25
2018-10-16T03:50:01.098Z,7.00
2018-10-16T03:52:30.142Z,7.40
2018-10-16T03:54:59.190Z,7.22
2018-10-16T03:57:28.338Z,6.75
2018-10-16T03:59:57.679Z,6.40
2018-10-16T04:02:26.823Z,7.20
2018-10-16T04:04:58.306Z,6.62
2018-10-16T04:07:28.194Z,10.10
2018-10-16T04:09:57.905Z,8.93
2018-10-16T04:12:26.982Z,9.60
2018-10-16T04:14:56.046Z,7.08
2018-10-16T04:17:25.378Z,10.30
2018-10-16T04:19:54.637Z,7.75
2018-10-16T04:22:23.834Z,7.22
2018-10-16T04:24:52.888Z,8.50
2018-10-16T04:27:22.426Z,7.65
2018-10-16T04:29:52.541Z,8.38
2018-10-16T04:32:22.102Z,8.80
2018-10-16T04:34:51.509Z,7.97
2018-10-16T04:37:21.329Z,8.05
2018-10-16T04:39:50.830Z,11.40
2018-10-16T04:42:19.858Z,6.85
2018-10-16T04:44:48.928Z,6.92
2018-10-16T04:47:18.902Z,8.45
2018-10-16T04:49:47.930Z,6.92
2018-10-16T04:52:17.214Z,8.75
2018-10-16T04:54:46.265Z,10.18
2018-10-16T04:57:15.290Z,8.53
2018-10-16T04:59:44.426Z,7.47
2018-10-16T05:02:13.495Z,6.55
2018-10-16T05:04:43.518Z,7.28
2018-10-16T05:07:12.561Z,10.20
2018-10-16T05:09:41.622Z,10.58
2018-10-16T05:12:11.458Z,7.47
2018-10-16T05:14:40.504Z,7.78
2018-10-16T05:17:09.654Z,10.53
2018-10-16T05:19:38.724Z,9.10
2018-10-16T05:22:08.097Z,12.73
2018-10-16T05:24:37.621Z,12.82
2018-10-16T05:27:07.699Z,14.95
2018-10-16T05:29:37.111Z,16.30
2018-10-16T05:32:06.847Z,15.58
2018-10-16T05:34:36.666Z,13.50
2018-10-16T05:37:06.139Z,16.37
2018-10-16T05:39:36.018Z,24.20
2018-10-16T05:42:05.349Z,19.77
2018-10-16T05:44:35.487Z,12.55
2018-10-16T05:47:05.382Z,15.72
2018-10-16T05:49:35.341Z,15.28
2018-10-16T05:52:04.521Z,18.15
2018-10-16T05:54:33.619Z,15.58
2018-10-16T05:57:02.695Z,10.35
2018-10-16T05:59:31.821Z,17.50
2018-10-16T06:02:01.190Z,17.05
2018-10-16T06:04:30.270Z,11.53
2018-10-16T06:06:59.562Z,12.40
2018-10-16T06:09:28.775Z,13.98
2018-10-16T06:11:59.700Z,15.75
2018-10-16T06:14:29.592Z,13.73
2018-10-16T06:16:58.634Z,14.33
2018-10-16T06:19:28.585Z,16.33
2018-10-16T06:21:57.645Z,18.10
2018-10-16T06:24:27.395Z,13.50
2018-10-16T06:26:57.289Z,16.70
2018-10-16T06:29:27.749Z,14.13
2018-10-16T06:31:57.682Z,16.80
2018-10-16T06:34:26.748Z,21.02
2018-10-16T06:36:56.438Z,11.67
2018-10-16T06:39:25.793Z,15.18
2018-10-16T06:41:55.698Z,12.43
2018-10-16T06:44:24.743Z,11.97
2018-10-16T06:46:54.499Z,13.30
2018-10-16T06:49:23.554Z,12.05
2018-10-16T06:51:52.618Z,12.35
2018-10-16T06:54:22.288Z,11.68
2018-10-16T06:56:51.350Z,11.65
2018-10-16T06:59:21.026Z,11.45
2018-10-16T07:01:51.580Z,13.37
2018-10-16T07:04:21.208Z,10.80
2018-10-16T07:06:50.861Z,11.97
2018-10-16T07:09:19.828Z,12.73
2018-10-16T07:11:49.477Z,12.23
2018-10-16T07:14:18.514Z,9.10
2018-10-16T07:16:47.657Z,9.80
2018-10-16T07:19:16.846Z,10.70
2018-10-16T07:21:48.851Z,11.03
2018-10-16T07:24:18.042Z,9.53
2018-10-16T07:26:48.063Z,10.72
2018-10-16T07:29:17.227Z,11.53
2018-10-16T07:31:47.079Z,10.23
2018-10-16T07:34:16.141Z,10.13
2018-10-16T07:36:45.578Z,10.17
2018-10-16T07:39:15.103Z,10.60
2018-10-16T07:41:44.154Z,9.83
2018-10-16T07:44:13.790Z,10.72
2018-10-16T07:46:43.926Z,10.82
2018-10-16T07:49:13.022Z,10.80
2018-10-16T07:51:43.026Z,11.43
2018-10-16T07:54:13.122Z,12.85
2018-10-16T07:56:42.200Z,10.00
2018-10-16T07:59:11.358Z,11.78
2018-10-16T08:01:41.193Z,12.00
2018-10-16T08:04:10.305Z,13.98
2018-10-16T08:06:39.750Z,11.45
2018-10-16T08:09:11.276Z,11.63
2018-10-16T08:11:49.605Z,11.22
2018-10-16T08:14:20.158Z,12.85
2018-10-16T08:16:50.313Z,11.35
2018-10-16T08:19:20.342Z,10.80
2018-10-16T08:21:49.918Z,12.25
2018-10-16T08:24:19.031Z,9.33
2018-10-16T08:26:48.137Z,11.88
2018-10-16T08:29:18.129Z,9.58
2018-10-16T08:31:48.327Z,10.65
2018-10-16T08:34:17.478Z,10.35
2018-10-16T08:36:46.882Z,9.58
2018-10-16T08:39:22.401Z,8.30
2018-10-16T08:44:09.974Z,9.08
2018-10-16T08:46:51.898Z,8.73
2018-10-16T08:49:32.438Z,8.10
2018-10-16T08:52:01.559Z,8.25
2018-10-16T08:54:30.613Z,7.72
2018-10-16T08:57:00.364Z,7.85
2018-10-16T08:59:29.654Z,7.97
2018-10-16T09:01:58.696Z,10.13
2018-10-16T09:04:28.034Z,8.75
2018-10-16T09:06:57.076Z,9.78
2018-10-16T09:09:26.150Z,9.38
2018-10-16T09:11:55.527Z,9.45
2018-10-16T09:14:24.628Z,7.75
2018-10-16T09:16:53.641Z,9.25
2018-10-16T09:19:23.546Z,9.05
2018-10-16T09:21:52.622Z,8.03
2018-10-16T09:24:21.686Z,8.75
2018-10-16T09:26:50.763Z,7.80
2018-10-16T09:29:19.825Z,6.72
2018-10-16T09:31:50.892Z,7.75
2018-10-16T09:34:20.609Z,8.03
2018-10-16T09:36:50.835Z,7.25
2018-10-16T09:39:19.925Z,8.13
2018-10-16T09:41:49.174Z,6.33
2018-10-16T09:44:18.255Z,7.28
2018-10-16T09:46:48.145Z,8.78
2018-10-16T09:49:17.206Z,7.87
2018-10-16T09:51:46.289Z,7.30
2018-10-16T09:54:15.393Z,8.98
2018-10-16T09:56:45.479Z,7.28
2018-10-16T09:59:14.521Z,9.83
2018-10-16T10:01:48.135Z,8.65
2018-10-16T10:04:17.245Z,7.62
2018-10-16T10:06:46.302Z,7.08
2018-10-16T10:09:16.675Z,7.87
2018-10-16T10:11:47.054Z,7.87
2018-10-16T10:14:16.690Z,6.50
2018-10-16T10:16:46.138Z,9.25
2018-10-16T10:19:15.229Z,7.17
2018-10-16T10:21:44.261Z,10.68
2018-10-16T10:24:13.333Z,7.08
2018-10-16T10:26:42.686Z,7.65
2018-10-16T10:29:12.049Z,6.75
2018-10-16T10:31:41.966Z,8.28
2018-10-16T10:34:11.350Z,7.80
2018-10-16T10:36:40.974Z,6.45
2018-10-16T10:39:11.435Z,7.58
2018-10-16T10:41:41.274Z,6.87
2018-10-16T10:44:10.788Z,6.22
2018-10-16T10:46:40.541Z,7.37
2018-10-16T10:49:09.773Z,7.83
2018-10-16T10:51:39.227Z,6.70
2018-10-16T10:54:08.043Z,6.50
2018-10-16T10:56:37.330Z,7.10
2018-10-16T10:59:06.550Z,7.87
2018-10-16T11:01:35.593Z,7.78
2018-10-16T11:04:05.952Z,8.10
2018-10-16T11:06:35.003Z,8.98
2018-10-16T11:09:05.642Z,9.18
2018-10-16T11:11:35.399Z,7.58
2018-10-16T11:14:05.074Z,7.03
2018-10-16T11:16:34.129Z,7.50
2018-10-16T11:19:03.247Z,6.17
2018-10-16T11:21:32.654Z,7.50
2018-10-16T11:24:01.694Z,6.60
2018-10-16T11:26:30.802Z,5.83
2018-10-16T11:28:59.887Z,6.75
2018-10-16T11:31:30.599Z,6.72
2018-10-16T11:34:00.215Z,5.72
2018-10-16T11:36:30.850Z,5.92
2018-10-16T11:39:00.712Z,6.25
2018-10-16T11:41:30.361Z,6.17
2018-10-16T11:43:59.441Z,6.67
2018-10-16T11:46:29.089Z,8.23
2018-10-16T11:48:58.144Z,7.20
2018-10-16T11:51:27.207Z,6.47
2018-10-16T11:53:56.448Z,6.65
2018-10-16T11:56:26.210Z,6.62
2018-10-16T11:58:55.467Z,7.62
2018-10-16T12:01:24.585Z,6.70
2018-10-16T12:03:53.822Z,6.28
2018-10-16T12:06:23.140Z,6.67
2018-10-16T12:08:52.237Z,6.28
2018-10-16T12:11:22.158Z,6.20
2018-10-16T12:13:51.987Z,7.87
2018-10-16T12:16:24.443Z,5.90
2018-10-16T12:19:03.293Z,5.50
2018-10-16T12:21:32.414Z,5.50
2018-10-16T12:24:01.835Z,6.92
2018-10-16T12:26:30.814Z,8.30
2018-10-16T12:29:00.083Z,7.03
2018-10-16T12:31:29.883Z,6.80
2018-10-16T12:33:59.594Z,7.15
2018-10-16T12:36:29.826Z,6.10
2018-10-16T12:38:59.720Z,6.72
2018-10-16T12:41:28.718Z,6.37
2018-10-16T12:43:57.754Z,6.25
2018-10-16T12:46:27.694Z,6.15
2018-10-16T12:48:56.769Z,5.95
2018-10-16T12:51:26.202Z,6.10
2018-10-16T12:53:55.453Z,6.97
2018-10-16T12:56:24.541Z,6.05
2018-10-16T12:58:53.796Z,6.42
2018-10-16T13:01:22.826Z,6.30
2018-10-16T13:03:52.060Z,6.25
2018-10-16T13:06:21.134Z,6.12
2018-10-16T13:08:51.484Z,6.35
2018-10-16T13:11:21.219Z,5.67
2018-10-16T13:13:51.203Z,6.12
2018-10-16T13:16:21.370Z,6.00
2018-10-16T13:18:50.679Z,6.50
2018-10-16T13:21:19.742Z,6.62
2018-10-16T13:23:49.070Z,7.03
2018-10-16T13:26:18.074Z,6.67
2018-10-16T13:28:47.217Z,8.23
2018-10-16T13:31:17.586Z,6.90
2018-10-16T13:33:47.306Z,6.33
2018-10-16T13:36:16.471Z,6.22
2018-10-16T13:38:46.403Z,7.28
2018-10-16T13:41:16.031Z,6.35
2018-10-16T13:43:46.211Z,6.75
2018-10-16T13:46:16.082Z,8.80
2018-10-16T13:48:45.053Z,7.42
2018-10-16T13:51:14.362Z,6.80
2018-10-16T13:53:43.442Z,7.08
2018-10-16T13:56:13.399Z,6.30
2018-10-16T13:58:42.394Z,6.90
2018-10-16T14:01:11.464Z,6.53
2018-10-16T14:03:40.533Z,7.35
2018-10-16T14:06:10.674Z,7.00
2018-10-16T14:08:39.730Z,5.92
2018-10-16T14:11:09.406Z,6.83
2018-10-16T14:13:38.554Z,6.10
2018-10-16T14:16:07.659Z,8.35
2018-10-16T14:18:37.615Z,6.55
2018-10-16T14:21:06.712Z,6.67
2018-10-16T14:23:36.147Z,7.85
2018-10-16T14:26:05.451Z,7.53
2018-10-16T14:28:34.437Z,5.80
2018-10-16T14:31:05.873Z,6.10
2018-10-16T14:33:37.154Z,5.80
2018-10-16T14:36:06.190Z,7.20
2018-10-16T14:38:35.760Z,6.67
2018-10-16T14:41:06.225Z,6.60
2018-10-16T14:43:35.294Z,6.87
2018-10-16T14:46:05.729Z,7.00
2018-10-16T14:48:34.959Z,6.58
2018-10-16T14:51:04.062Z,5.92
2018-10-16T14:53:33.134Z,7.45
2018-10-16T14:56:02.278Z,7.55
2018-10-16T14:58:31.372Z,7.45
2018-10-16T15:01:00.503Z,6.35
2018-10-16T15:03:29.845Z,7.75
2018-10-16T15:05:58.877Z,6.72
2018-10-16T15:08:27.929Z,5.30
2018-10-16T15:10:57.016Z,7.87
2018-10-16T15:13:26.193Z,5.37
2018-10-16T15:15:55.833Z,5.70
2018-10-16T15:18:25.670Z,6.42
2018-10-16T15:20:55.390Z,6.55
2018-10-16T15:23:25.097Z,7.65
2018-10-16T15:25:54.515Z,6.03
2018-10-16T15:28:23.700Z,6.33
2018-10-16T15:30:53.753Z,6.22
2018-10-16T15:33:23.426Z,8.05
2018-10-16T15:35:52.586Z,5.37
2018-10-16T15:38:22.202Z,5.53
2018-10-16T15:40:51.299Z,7.08
2018-10-16T15:43:20.334Z,6.53
2018-10-16T15:45:49.403Z,6.17
2018-10-16T15:48:19.413Z,6.30
2018-10-16T15:50:48.571Z,6.10
2018-10-16T15:53:17.633Z,5.62
2018-10-16T15:55:46.688Z,6.17
2018-10-16T15:58:15.830Z,6.10
2018-10-16T16:00:45.784Z,6.20
2018-10-16T16:03:15.754Z,5.85
2018-10-16T16:05:45.402Z,6.83
2018-10-16T16:08:15.373Z,5.30
2018-10-16T16:10:45.227Z,5.90
2018-10-16T16:13:14.881Z,5.47
2018-10-16T16:15:43.974Z,6.08
2018-10-16T16:18:13.049Z,6.12
2018-10-16T16:20:42.117Z,7.65
2018-10-16T16:23:11.379Z,5.05
2018-10-16T16:25:40.595Z,5.72
2018-10-16T16:28:09.702Z,5.45
2018-10-16T16:30:39.278Z,6.47
2018-10-16T16:33:09.238Z,6.33
2018-10-16T16:35:38.860Z,5.72
2018-10-16T16:38:08.798Z,6.87
2018-10-16T16:40:38.946Z,8.83
2018-10-16T16:43:08.004Z,8.60
2018-10-16T16:45:37.133Z,5.25
2018-10-16T16:48:07.371Z,6.45
2018-10-16T16:50:36.447Z,6.05
2018-10-16T16:53:05.645Z,6.42
2018-10-16T16:55:35.223Z,6.40
2018-10-16T16:58:05.763Z,7.47
2018-10-16T17:00:34.737Z,9.78
2018-10-16T17:03:05.182Z,8.53
2018-10-16T17:05:34.247Z,6.37
2018-10-16T17:08:03.562Z,7.40
2018-10-16T17:10:32.574Z,8.38
2018-10-16T17:13:01.630Z,8.23
2018-10-16T17:15:30.765Z,8.58
2018-10-16T17:17:59.819Z,7.47
2018-10-16T17:20:28.874Z,8.53
2018-10-16T17:22:57.918Z,7.15
2018-10-16T17:25:27.498Z,7.75
2018-10-16T17:27:56.641Z,8.05
2018-10-16T17:30:26.202Z,8.70
2018-10-16T17:32:55.676Z,12.20
2018-10-16T17:35:24.715Z,10.10
2018-10-16T17:37:53.803Z,9.05
2018-10-16T17:40:23.273Z,10.78
2018-10-16T17:42:52.350Z,16.35
2018-10-16T17:45:21.937Z,30.12
2018-10-16T17:47:52.072Z,18.07
2018-10-16T17:50:21.059Z,16.10
2018-10-16T17:52:50.141Z,13.90
2018-10-16T17:55:20.009Z,11.43
2018-10-16T17:57:49.732Z,20.05
2018-10-16T18:00:19.810Z,19.25
2018-10-16T18:02:48.859Z,17.55
2018-10-16T18:05:18.535Z,18.27
2018-10-16T18:07:48.235Z,16.35
2018-10-16T18:10:17.372Z,13.18
2018-10-16T18:12:46.439Z,12.60
2018-10-16T18:15:15.822Z,15.43
2018-10-16T18:17:44.882Z,15.95
2018-10-16T18:20:15.447Z,11.05
2018-10-16T18:22:45.174Z,12.28
2018-10-16T18:25:14.274Z,12.68
2018-10-16T18:27:44.885Z,9.28
2018-10-16T18:30:14.645Z,12.82
2018-10-16T18:32:44.366Z,11.80
2018-10-16T18:35:13.464Z,11.45
2018-10-16T18:37:43.663Z,12.03
2018-10-16T18:40:13.678Z,11.57
2018-10-16T18:42:43.151Z,9.28
2018-10-16T18:45:13.424Z,15.40
2018-10-16T18:47:43.001Z,13.58
2018-10-16T18:50:13.383Z,12.30
2018-10-16T18:52:43.113Z,10.48
2018-10-16T18:55:13.870Z,9.73
2018-10-16T18:57:42.955Z,12.60
2018-10-16T19:00:16.034Z,11.70
2018-10-16T19:02:45.450Z,12.07
2018-10-16T19:05:14.702Z,11.30
2018-10-16T19:07:43.859Z,8.50
2018-10-16T19:10:12.942Z,8.33
2018-10-16T19:12:42.398Z,7.35
2018-10-16T19:15:12.927Z,10.38
2018-10-16T19:17:42.774Z,9.38
2018-10-16T19:20:13.198Z,9.95
2018-10-16T19:22:43.014Z,7.50
2018-10-16T19:25:14.024Z,10.00
2018-10-16T19:27:44.310Z,11.22
2018-10-16T19:30:14.486Z,8.50
2018-10-16T19:32:44.740Z,7.83
2018-10-16T19:35:14.925Z,7.78
2018-10-16T19:37:44.010Z,11.20
2018-10-16T19:40:13.430Z,10.95
2018-10-16T19:42:43.683Z,7.08
2018-10-16T19:45:12.749Z,12.00
2018-10-16T19:47:43.310Z,8.98
2018-10-16T19:50:12.375Z,10.72
2018-10-16T19:52:41.721Z,9.63
2018-10-16T19:55:10.814Z,7.87
2018-10-16T19:57:39.870Z,9.45
2018-10-16T20:00:09.779Z,8.38
2018-10-16T20:02:38.937Z,7.62
2018-10-16T20:05:08.969Z,7.80
2018-10-16T20:07:38.090Z,7.95
2018-10-16T20:10:09.407Z,7.45
2018-10-16T20:12:39.777Z,10.03
2018-10-16T20:15:10.509Z,9.05
2018-10-16T20:17:40.590Z,7.78
2018-10-16T20:20:11.046Z,6.87
2018-10-16T20:22:40.208Z,6.35
2018-10-16T20:25:10.085Z,9.05
2018-10-16T20:27:40.550Z,8.68
2018-10-16T20:30:11.258Z,11.43
2018-10-16T20:32:41.384Z,7.40
2018-10-16T20:35:10.584Z,8.48
2018-10-16T20:37:39.716Z,8.63
2018-10-16T20:40:09.391Z,9.00
2018-10-16T20:42:39.000Z,6.80
2018-10-16T20:45:08.619Z,6.97
2018-10-16T20:47:38.939Z,6.97
2018-10-16T20:50:08.503Z,5.85
2018-10-16T20:52:37.998Z,7.30
2018-10-16T20:55:07.550Z,6.90
2018-10-16T20:57:36.757Z,6.97
2018-10-16T21:00:07.672Z,6.55
2018-10-16T21:02:37.234Z,7.45
2018-10-16T21:05:07.661Z,6.55
2018-10-16T21:07:36.642Z,7.72
2018-10-16T21:10:06.574Z,7.25
2018-10-16T21:12:35.662Z,8.75
2018-10-16T21:15:05.890Z,6.97
2018-10-16T21:17:35.682Z,7.58
2018-10-16T21:20:05.446Z,7.15
2018-10-16T21:22:34.529Z,7.42
2018-10-16T21:25:04.018Z,7.83
2018-10-16T21:27:33.661Z,7.05
2018-10-16T21:30:03.308Z,6.85
2018-10-16T21:32:33.174Z,6.53
2018-10-16T21:35:02.361Z,7.55
2018-10-16T21:37:31.524Z,8.05
2018-10-16T21:40:01.038Z,7.87
2018-10-16T21:42:30.528Z,6.67
2018-10-16T21:44:59.616Z,6.33
2018-10-16T21:47:29.702Z,6.72
2018-10-16T21:49:58.761Z,6.33
2018-10-16T21:52:27.797Z,7.28
2018-10-16T21:54:56.982Z,6.67
2018-10-16T21:57:26.090Z,6.10
2018-10-16T21:59:55.561Z,6.67
2018-10-16T22:02:58.019Z,6.72
2018-10-16T22:05:27.968Z,8.08
2018-10-16T22:07:57.663Z,7.17
2018-10-16T22:10:27.842Z,6.58
2018-10-16T22:12:57.527Z,7.45
2018-10-16T22:15:26.781Z,6.03
2018-10-16T22:17:55.895Z,6.33
2018-10-16T22:20:25.048Z,7.05
2018-10-16T22:22:54.642Z,5.58
2018-10-16T22:25:23.767Z,6.03
2018-10-16T22:27:53.818Z,6.00
2018-10-16T22:30:23.838Z,6.37
2018-10-16T22:32:53.489Z,5.47
2018-10-16T22:35:22.537Z,6.10
2018-10-16T22:37:51.905Z,6.80
2018-10-16T22:40:21.433Z,6.25
2018-10-16T22:42:50.745Z,5.55
2018-10-16T22:45:20.417Z,6.17
2018-10-16T22:47:50.329Z,7.25
2018-10-16T22:50:19.423Z,7.30
2018-10-16T22:52:49.266Z,8.18
2018-10-16T22:55:18.331Z,6.53
2018-10-16T22:57:47.732Z,7.17
2018-10-16T23:00:18.116Z,6.35
2018-10-16T23:02:47.964Z,5.60
2018-10-16T23:05:17.179Z,7.05
2018-10-16T23:07:46.890Z,6.50
2018-10-16T23:10:16.285Z,5.87
2018-10-16T23:12:49.667Z,5.72
2018-10-16T23:15:18.773Z,6.85
2018-10-16T23:17:48.292Z,6.45
2018-10-16T23:20:18.899Z,5.78
2018-10-16T23:22:47.942Z,7.78
2018-10-16T23:25:17.136Z,6.65
2018-10-16T23:27:46.850Z,5.85
2018-10-16T23:30:16.375Z,7.83
2018-10-16T23:32:46.283Z,6.10
2018-10-16T23:35:15.373Z,6.12
2018-10-16T23:37:44.372Z,6.75
2018-10-16T23:40:13.514Z,8.43
2018-10-16T23:42:43.150Z,6.72
2018-10-16T23:45:12.493Z,6.45
2018-10-16T23:47:42.411Z,5.30
2018-10-16T23:50:11.477Z,5.80
2018-10-16T23:52:40.525Z,5.72
2018-10-16T23:55:10.948Z,6.33
2018-10-16T23:57:40.150Z,5.62
